Time;durP1;ratioP1;P1;durP2;ratioP2;P2;SDS_P1;SDS_P2;PMS_P1;PMS_P2;Temp;Humidity;BMP_temperature;BMP_pressure;BME280_temperature;BME280_humidity;BME280_pressure;Samples;Min_cycle;Max_cycle;Signal;HPM_P1;HPM_P2
2021/09/08 00:01:20;;;;;;;14.50;7.87;;;;;;;13.74;100.00;94158.16;5032460;28;20204;-81
2021/09/08 00:03:47;;;;;;;15.60;7.77;;;;;;;13.57;100.00;94158.63;5032582;28;20274;-80
2021/09/08 00:06:17;;;;;;;13.53;7.60;;;;;;;13.53;100.00;94156.66;5032500;28;20200;-81
2021/09/08 00:08:49;;;;;;;13.47;7.60;;;;;;;13.54;100.00;94158.25;5034156;28;20242;-80
2021/09/08 00:11:18;;;;;;;22.23;9.17;;;;;;;13.63;100.00;94142.06;5036048;28;20231;-81
2021/09/08 00:13:45;;;;;;;13.45;7.47;;;;;;;13.78;100.00;94147.03;5035941;28;20200;-80
2021/09/08 00:16:12;;;;;;;18.67;8.37;;;;;;;13.76;100.00;94145.66;5033413;28;20291;-80
2021/09/08 00:18:40;;;;;;;16.92;9.13;;;;;;;13.76;100.00;94140.41;5036015;28;20200;-80
2021/09/08 00:21:07;;;;;;;19.17;7.85;;;;;;;13.77;100.00;94139.38;5036016;28;20196;-80
2021/09/08 00:23:35;;;;;;;18.98;9.20;;;;;;;13.85;100.00;94126.00;5035430;28;20322;-80
2021/09/08 00:29:25;;;;;;;19.80;9.32;;;;;;;13.92;100.00;94124.13;5028966;28;20276;-79
2021/09/08 01:02:45;;;;;;;19.65;10.20;;;;;;;13.65;100.00;94108.56;5015568;28;20196;-79
2021/09/08 01:05:12;;;;;;;17.07;10.27;;;;;;;13.51;100.00;94117.53;5014739;28;20591;-80
2021/09/08 01:07:41;;;;;;;18.67;10.68;;;;;;;13.53;100.00;94110.25;5015488;28;20560;-80
2021/09/08 01:10:08;;;;;;;21.55;10.15;;;;;;;13.37;100.00;94115.97;5015235;28;20231;-79
2021/09/08 01:12:35;;;;;;;18.43;10.90;;;;;;;13.27;100.00;94111.97;5015275;28;20227;-79
2021/09/08 01:15:05;;;;;;;18.95;11.07;;;;;;;13.30;100.00;94106.28;5014200;28;20661;-79
2021/09/08 01:17:31;;;;;;;19.47;10.60;;;;;;;13.32;100.00;94111.34;5021282;28;20203;-79
2021/09/08 01:19:59;;;;;;;20.27;10.90;;;;;;;13.51;100.00;94102.59;5033950;28;20532;-79
2021/09/08 01:22:30;;;;;;;21.33;10.30;;;;;;;13.55;100.00;94102.16;5034945;28;20204;-80
2021/09/08 01:24:59;;;;;;;18.52;10.05;;;;;;;13.43;100.00;94104.66;5034501;28;20232;-79
2021/09/08 01:27:26;;;;;;;16.70;9.43;;;;;;;13.43;100.00;94096.78;5034599;28;20211;-79
2021/09/08 01:29:53;;;;;;;19.58;10.38;;;;;;;13.18;100.00;94101.91;5034360;28;20591;-80
2021/09/08 01:32:21;;;;;;;19.23;9.80;;;;;;;13.18;100.00;94100.09;5034836;28;20208;-80
2021/09/08 01:34:54;;;;;;;18.15;9.88;;;;;;;13.28;100.00;94097.81;5034674;28;20200;-80
2021/09/08 01:37:22;;;;;;;18.87;10.10;;;;;;;13.38;100.00;94099.22;5034591;28;20207;-79
2021/09/08 01:39:49;;;;;;;18.27;9.93;;;;;;;13.20;100.00;94095.44;5034499;28;20200;-79
2021/09/08 01:42:16;;;;;;;20.27;9.70;;;;;;;13.26;100.00;94097.22;5034375;28;20227;-79
2021/09/08 01:44:45;;;;;;;17.87;9.83;;;;;;;13.51;100.00;94091.28;5034210;28;20200;-79
2021/09/08 01:47:12;;;;;;;20.43;10.37;;;;;;;13.49;100.00;94088.09;5034484;28;20222;-79
2021/09/08 01:49:40;;;;;;;18.87;9.67;;;;;;;13.23;100.00;94096.84;5034791;28;20769;-79
2021/09/08 01:52:07;;;;;;;19.83;9.10;;;;;;;13.21;100.00;94089.19;5034334;28;20291;-79
2021/09/08 01:54:36;;;;;;;22.87;9.53;;;;;;;13.35;100.00;94086.53;5034222;28;20211;-79
2021/09/08 01:57:03;;;;;;;15.87;8.93;;;;;;;13.42;100.00;94082.06;5033985;28;20208;-79
2021/09/08 01:59:31;;;;;;;17.33;9.20;;;;;;;13.42;100.00;94089.91;5033015;28;20780;-79
2021/09/08 02:02:00;;;;;;;18.38;8.60;;;;;;;13.37;100.00;94081.88;5033946;28;20655;-80
2021/09/08 02:04:26;;;;;;;15.55;8.48;;;;;;;13.44;100.00;94080.00;5033916;28;20200;-79
2021/09/08 02:06:53;;;;;;;17.05;9.32;;;;;;;13.23;100.00;94081.91;5033968;28;20207;-80
2021/09/08 02:09:23;;;;;;;18.00;8.67;;;;;;;13.29;100.00;94081.09;5033881;28;20211;-80
2021/09/08 02:11:51;;;;;;;17.10;9.03;;;;;;;13.37;100.00;94074.81;5033684;28;20232;-80
2021/09/08 02:14:17;;;;;;;14.77;8.47;;;;;;;13.19;100.00;94072.88;5033630;28;20212;-79
2021/09/08 02:16:49;;;;;;;13.40;7.53;;;;;;;13.22;98.91;94076.88;5030640;28;20247;-79
2021/09/08 02:19:15;;;;;;;13.77;7.63;;;;;;;13.35;96.62;94078.66;5013969;28;20262;-79
2021/09/08 02:21:42;;;;;;;16.88;8.07;;;;;;;13.40;96.95;94063.09;5013850;28;20209;-80
2021/09/08 02:24:08;;;;;;;19.93;7.87;;;;;;;13.37;96.27;94066.94;5013646;28;20235;-79
2021/09/08 02:26:38;;;;;;;16.87;7.63;;;;;;;13.30;96.12;94059.06;5013598;28;20651;-80
2021/09/08 02:29:06;;;;;;;12.77;7.20;;;;;;;13.15;97.17;94066.41;5013920;28;20283;-79
2021/09/08 02:31:33;;;;;;;14.57;7.50;;;;;;;12.92;98.83;94067.75;5013627;28;20224;-79
2021/09/08 02:34:03;;;;;;;14.30;6.72;;;;;;;13.07;97.71;94069.28;5013690;28;20299;-80
2021/09/08 02:36:30;;;;;;;14.23;7.70;;;;;;;13.06;97.01;94052.75;5013947;28;20201;-80
2021/09/08 02:38:56;;;;;;;12.77;7.40;;;;;;;13.16;95.17;94062.78;5013729;28;20208;-80
2021/09/08 02:41:26;;;;;;;17.50;7.30;;;;;;;13.12;95.46;94058.97;5013656;28;20251;-79
2021/09/08 02:43:53;;;;;;;15.97;7.20;;;;;;;13.04;96.36;94062.66;5013780;28;20255;-80
2021/09/08 02:46:22;;;;;;;12.77;7.07;;;;;;;13.11;93.90;94054.75;5013646;28;20295;-79
2021/09/08 02:48:50;;;;;;;19.90;7.40;;;;;;;13.14;94.43;94054.34;5013555;28;20200;-79
2021/09/08 02:51:20;;;;;;;13.77;7.17;;;;;;;13.08;94.77;94055.16;5013268;28;20238;-80
2021/09/08 02:53:47;;;;;;;15.63;7.53;;;;;;;13.07;93.55;94048.31;5013814;28;20205;-80
2021/09/08 02:56:15;;;;;;;16.50;7.37;;;;;;;12.97;94.41;94048.75;5013546;28;20201;-80
2021/09/08 02:58:43;;;;;;;13.17;6.97;;;;;;;12.86;94.42;94047.59;5013439;28;21036;-79
2021/09/08 03:01:11;;;;;;;17.20;7.25;;;;;;;12.77;96.15;94044.41;5013268;28;20651;-79
2021/09/08 03:03:40;;;;;;;14.37;7.40;;;;;;;12.69;94.94;94049.88;5013351;28;20197;-80
2021/09/08 03:06:06;;;;;;;16.57;7.13;;;;;;;12.57;96.08;94038.41;5013196;28;20837;-80
2021/09/08 03:08:34;;;;;;;13.23;6.93;;;;;;;12.51;96.07;94039.25;5013138;28;20201;-79
2021/09/08 03:11:01;;;;;;;15.20;6.70;;;;;;;12.44;97.49;94039.28;5013264;28;20583;-80
2021/09/08 03:13:27;;;;;;;13.87;7.20;;;;;;;12.39;96.80;94037.25;5013202;28;20204;-80
2021/09/08 03:15:54;;;;;;;14.90;7.07;;;;;;;12.35;98.86;94035.25;5013088;28;20219;-79
2021/09/08 03:18:26;;;;;;;14.13;6.40;;;;;;;12.39;98.49;94033.84;5025910;28;20528;-79
2021/09/08 03:20:57;;;;;;;12.90;6.97;;;;;;;12.28;98.77;94032.66;5032896;28;20678;-80
2021/09/08 03:23:26;;;;;;;12.47;6.70;;;;;;;12.64;93.46;94025.28;5032823;28;20327;-80
2021/09/08 03:25:54;;;;;;;14.93;6.13;;;;;;;12.58;94.28;94034.78;5032895;28;20231;-79
2021/09/08 03:28:20;;;;;;;13.93;6.33;;;;;;;12.59;96.43;94025.94;5032721;28;20204;-80
2021/09/08 03:30:56;;;;;;;10.77;5.87;;;;;;;12.56;96.07;94024.53;5032516;28;20220;-80
2021/09/08 03:33:26;;;;;;;12.83;5.63;;;;;;;12.43;96.05;94021.94;5032618;28;20677;-80
2021/09/08 03:35:59;;;;;;;11.30;5.83;;;;;;;12.33;93.24;94026.81;5032859;28;20295;-80
2021/09/08 03:38:28;;;;;;;9.55;6.00;;;;;;;12.43;89.08;94019.31;5032539;28;20207;-79
2021/09/08 03:40:59;;;;;;;10.67;5.80;;;;;;;12.30;91.01;94027.22;5032619;28;20208;-79
2021/09/08 03:43:28;;;;;;;11.37;5.67;;;;;;;12.35;90.95;94025.56;5033807;28;20196;-80
2021/09/08 03:45:55;;;;;;;12.97;5.13;;;;;;;12.54;88.12;94023.94;5036755;28;20200;-79
2021/09/08 03:48:21;;;;;;;10.90;5.83;;;;;;;12.31;92.19;94029.63;5036670;28;20204;-79
2021/09/08 03:50:48;;;;;;;11.03;5.70;;;;;;;12.04;95.31;94028.88;5036313;28;20711;-79
2021/09/08 03:53:16;;;;;;;12.97;5.83;;;;;;;11.95;94.36;94027.44;5036545;28;20200;-79
2021/09/08 03:55:43;;;;;;;13.23;6.53;;;;;;;11.66;99.59;94034.69;5036297;28;20211;-80
2021/09/08 03:58:10;;;;;;;11.90;6.93;;;;;;;11.35;100.00;94022.16;5036285;28;20208;-80
2021/09/08 04:00:39;;;;;;;18.83;6.70;;;;;;;11.08;100.00;94022.91;5036442;28;20274;-80
2021/09/08 04:03:10;;;;;;;16.37;6.47;;;;;;;10.86;100.00;94018.84;5036175;28;20200;-81
2021/09/08 04:05:36;;;;;;;12.37;6.63;;;;;;;10.60;100.00;94017.72;5035842;28;20223;-80
2021/09/08 04:08:04;;;;;;;13.13;7.50;;;;;;;10.41;100.00;94016.66;5036130;28;20215;-80
2021/09/08 04:10:34;;;;;;;12.23;7.17;;;;;;;10.52;100.00;94012.66;5035980;28;20291;-81
2021/09/08 04:13:00;;;;;;;14.23;7.00;;;;;;;10.42;100.00;94014.84;5035918;28;20687;-79
2021/09/08 04:15:33;;;;;;;12.65;7.38;;;;;;;10.38;100.00;94008.41;5035093;28;20433;-79
2021/09/08 04:18:02;;;;;;;12.87;7.17;;;;;;;10.38;100.00;94003.19;5036046;28;20192;-80
2021/09/08 04:20:29;;;;;;;15.30;6.93;;;;;;;10.29;100.00;94010.31;5035931;28;20200;-79
2021/09/08 04:22:57;;;;;;;15.47;7.03;;;;;;;10.23;100.00;94001.47;5035629;28;20281;-80
2021/09/08 04:25:27;;;;;;;14.90;7.07;;;;;;;10.10;100.00;93994.34;5036026;28;20200;-79
2021/09/08 04:27:55;;;;;;;11.90;7.27;;;;;;;10.00;100.00;94005.13;5020595;28;20284;-80
2021/09/08 04:30:22;;;;;;;13.37;7.73;;;;;;;9.87;100.00;93997.22;5015933;28;20212;-80
2021/09/08 04:32:50;;;;;;;12.50;6.87;;;;;;;9.84;100.00;93996.78;5015874;28;20324;-80
2021/09/08 04:35:16;;;;;;;12.83;6.70;;;;;;;9.67;100.00;93993.66;5015914;28;20240;-79
2021/09/08 04:37:44;;;;;;;13.87;7.17;;;;;;;9.46;100.00;94000.53;5015780;28;20244;-79
2021/09/08 04:40:16;;;;;;;15.17;7.03;;;;;;;9.44;100.00;93997.28;5015962;28;20205;-79
2021/09/08 04:42:45;;;;;;;12.40;7.10;;;;;;;9.29;100.00;93999.97;5015842;28;20204;-79
2021/09/08 04:45:11;;;;;;;15.40;7.30;;;;;;;9.23;100.00;93991.09;5015861;28;20209;-79
2021/09/08 04:47:38;;;;;;;12.53;6.43;;;;;;;9.33;100.00;94003.03;5015671;28;20204;-79
2021/09/08 04:50:09;;;;;;;13.67;7.13;;;;;;;9.41;100.00;93998.50;5014992;28;20232;-79
2021/09/08 04:52:40;;;;;;;15.17;7.40;;;;;;;9.37;100.00;93992.03;5015508;28;20686;-79
2021/09/08 04:55:11;;;;;;;16.33;7.40;;;;;;;9.50;100.00;93995.75;5014554;28;20299;-79
2021/09/08 04:57:37;;;;;;;15.93;7.10;;;;;;;9.60;100.00;93991.81;5015662;28;20251;-80
2021/09/08 05:00:09;;;;;;;16.23;7.03;;;;;;;9.48;100.00;94001.16;5015411;28;20197;-79
2021/09/08 05:02:45;;;;;;;16.00;7.50;;;;;;;9.65;100.00;94001.69;5014646;28;20200;-80
2021/09/08 05:05:17;;;;;;;12.83;7.10;;;;;;;9.61;100.00;93993.44;5015561;28;20235;-79
2021/09/08 05:07:43;;;;;;;11.53;6.43;;;;;;;9.50;100.00;93993.94;5015472;28;20205;-79
2021/09/08 05:10:16;;;;;;;18.63;7.60;;;;;;;9.60;100.00;93996.22;5015306;28;20209;-79
2021/09/08 05:12:44;;;;;;;16.33;7.97;;;;;;;9.67;100.00;93998.88;5015235;28;20235;-79
2021/09/08 05:15:19;;;;;;;14.83;7.20;;;;;;;9.63;100.00;93993.25;5015011;28;20251;-80
2021/09/08 05:17:54;;;;;;;14.87;7.23;;;;;;;9.70;100.00;93991.50;5023457;28;20280;-79
2021/09/08 05:20:21;;;;;;;14.00;7.53;;;;;;;9.76;100.00;93995.94;5034968;28;20558;-79
2021/09/08 05:22:48;;;;;;;14.20;7.43;;;;;;;9.94;100.00;93990.25;5034515;28;20244;-80
2021/09/08 05:25:16;;;;;;;18.90;8.27;;;;;;;9.95;100.00;93994.47;5034720;28;20238;-79
2021/09/08 05:27:42;;;;;;;14.80;7.70;;;;;;;9.90;100.00;93989.00;5034684;28;20581;-80
2021/09/08 05:30:12;;;;;;;15.23;6.83;;;;;;;9.90;100.00;93990.81;5034864;28;20262;-80
2021/09/08 05:32:39;;;;;;;12.57;6.57;;;;;;;9.91;100.00;93995.84;5034734;28;20239;-80
2021/09/08 05:35:12;;;;;;;17.67;7.00;;;;;;;10.07;100.00;93999.16;5034693;28;20266;-80
2021/09/08 05:37:45;;;;;;;14.03;7.30;;;;;;;10.08;100.00;94003.38;5034514;28;20208;-79
2021/09/08 05:40:13;;;;;;;12.00;6.80;;;;;;;10.17;100.00;93999.59;5034329;28;20211;-79
2021/09/08 05:42:40;;;;;;;14.70;7.47;;;;;;;10.13;100.00;94007.03;5034560;28;20208;-80
2021/09/08 05:45:11;;;;;;;14.60;8.30;;;;;;;10.10;100.00;94001.38;5034220;28;20441;-79
2021/09/08 05:47:38;;;;;;;15.93;8.47;;;;;;;10.23;100.00;94003.28;5034636;28;20242;-79
2021/09/08 05:50:05;;;;;;;14.53;8.00;;;;;;;10.15;100.00;94002.41;5032645;28;20565;-80
2021/09/08 05:52:33;;;;;;;12.93;8.07;;;;;;;10.09;100.00;94015.41;5034134;28;20785;-80
2021/09/08 05:55:01;;;;;;;17.50;9.30;;;;;;;10.11;100.00;94019.47;5034303;28;20208;-80
2021/09/08 05:57:29;;;;;;;19.23;8.90;;;;;;;10.10;100.00;94017.03;5034210;28;20205;-80
2021/09/08 05:59:55;;;;;;;13.50;8.47;;;;;;;10.18;100.00;94020.28;5034023;28;20200;-80
2021/09/08 06:02:24;;;;;;;14.73;8.70;;;;;;;10.19;100.00;94021.91;5033933;28;20204;-80
2021/09/08 06:04:53;;;;;;;17.97;9.27;;;;;;;10.30;100.00;94017.94;5033973;28;20205;-80
2021/09/08 06:07:24;;;;;;;17.57;9.10;;;;;;;10.48;100.00;94016.69;5033627;28;20211;-80
2021/09/08 06:09:53;;;;;;;19.40;9.63;;;;;;;10.50;100.00;94023.28;5033777;28;20548;-80
2021/09/08 06:12:21;;;;;;;16.27;8.70;;;;;;;10.55;100.00;94025.34;5033894;28;20232;-80
2021/09/08 06:14:48;;;;;;;16.93;9.30;;;;;;;10.54;100.00;94018.50;5033754;28;20207;-79
2021/09/08 06:17:14;;;;;;;16.83;8.77;;;;;;;10.57;100.00;94018.09;5033667;28;20192;-79
2021/09/08 06:19:41;;;;;;;16.17;8.87;;;;;;;10.62;100.00;94018.31;5031143;28;20207;-80
2021/09/08 06:22:12;;;;;;;16.40;8.70;;;;;;;10.67;100.00;94021.16;5033823;28;20290;-81
2021/09/08 06:24:39;;;;;;;16.67;8.10;;;;;;;10.68;100.00;94014.16;5033439;28;20224;-80
2021/09/08 06:27:05;;;;;;;19.53;9.40;;;;;;;10.76;100.00;94016.59;5033611;28;20543;-80
2021/09/08 06:29:43;;;;;;;13.03;7.93;;;;;;;10.79;100.00;94012.78;5033589;28;20207;-79
2021/09/08 06:32:12;;;;;;;17.77;8.40;;;;;;;10.84;100.00;94013.00;5033303;28;20689;-79
2021/09/08 06:34:51;;;;;;;11.70;7.27;;;;;;;10.96;100.00;94005.38;5033571;28;20211;-79
2021/09/08 06:37:22;;;;;;;14.67;8.87;;;;;;;11.08;100.00;94007.22;5033556;28;20239;-79
2021/09/08 06:39:52;;;;;;;13.17;8.30;;;;;;;11.26;100.00;94005.88;5033356;28;20204;-79
2021/09/08 06:42:19;;;;;;;14.63;8.60;;;;;;;11.38;100.00;94006.88;5033430;28;20200;-79
2021/09/08 06:44:53;;;;;;;17.60;8.77;;;;;;;11.53;100.00;94000.69;5033145;28;20199;-80
2021/09/08 06:47:20;;;;;;;17.80;8.77;;;;;;;11.78;100.00;93999.06;5033521;28;20227;-79
2021/09/08 06:49:51;;;;;;;12.30;7.70;;;;;;;11.94;100.00;94008.34;5033080;28;20627;-79
2021/09/08 06:52:20;;;;;;;15.83;8.73;;;;;;;12.18;100.00;94006.09;5033197;28;20227;-79
2021/09/08 06:54:50;;;;;;;15.57;8.37;;;;;;;12.38;100.00;93998.19;5033125;28;20655;-79
2021/09/08 06:57:16;;;;;;;17.80;8.00;;;;;;;12.56;100.00;93997.53;5033061;28;20196;-79
2021/09/08 06:59:43;;;;;;;17.17;8.57;;;;;;;12.80;100.00;93995.22;5032374;28;20211;-80
2021/09/08 07:02:15;;;;;;;14.13;8.27;;;;;;;12.94;100.00;93991.53;5033136;28;20559;-79
2021/09/08 07:04:43;;;;;;;14.25;7.55;;;;;;;13.12;100.00;93993.44;5033188;28;20208;-79
2021/09/08 07:07:20;;;;;;;13.63;7.70;;;;;;;13.29;100.00;93989.31;5033054;28;20685;-80
2021/09/08 07:09:49;;;;;;;15.83;7.37;;;;;;;13.50;100.00;93985.56;5032735;28;20574;-79
2021/09/08 07:12:16;;;;;;;13.63;7.78;;;;;;;13.74;100.00;93990.22;5032918;28;20232;-79
2021/09/08 07:14:51;;;;;;;13.40;7.65;;;;;;;13.98;100.00;93986.00;5033076;28;20547;-79
2021/09/08 07:17:20;;;;;;;10.63;7.10;;;;;;;14.22;100.00;93981.69;5032564;28;20192;-79
2021/09/08 07:19:49;;;;;;;15.45;7.78;;;;;;;14.46;100.00;93977.44;5032502;28;20211;-79
2021/09/08 07:22:15;;;;;;;11.20;7.00;;;;;;;14.59;100.00;93984.41;5033030;28;20208;-78
2021/09/08 07:24:44;;;;;;;13.07;7.38;;;;;;;14.74;100.00;93984.81;5032565;28;20242;-78
2021/09/08 07:27:13;;;;;;;13.45;7.38;;;;;;;14.90;100.00;93977.34;5032903;28;20212;-78
2021/09/08 07:29:39;;;;;;;11.68;7.30;;;;;;;15.06;100.00;93979.34;5032699;28;20208;-79
2021/09/08 07:32:10;;;;;;;12.55;7.05;;;;;;;15.23;100.00;93974.25;5032547;28;20719;-78
2021/09/08 07:34:39;;;;;;;11.93;7.43;;;;;;;15.41;100.00;93970.78;5032583;28;20212;-79
2021/09/08 07:37:07;;;;;;;13.30;7.05;;;;;;;15.49;99.52;93973.06;5032807;28;20211;-79
2021/09/08 07:39:33;;;;;;;13.00;7.32;;;;;;;15.61;99.62;93972.31;5032628;28;20208;-79
2021/09/08 07:42:00;;;;;;;12.88;7.47;;;;;;;15.81;99.12;93975.44;5032651;28;20674;-78
2021/09/08 07:44:28;;;;;;;13.68;7.35;;;;;;;15.93;97.25;93974.66;5032703;28;20236;-79
2021/09/08 07:46:57;;;;;;;12.02;7.03;;;;;;;16.14;99.26;93968.00;5032559;28;20666;-79
2021/09/08 07:49:27;;;;;;;10.07;6.50;;;;;;;16.34;99.90;93970.28;5032769;28;20200;-79
2021/09/08 07:51:55;;;;;;;13.02;7.90;;;;;;;16.41;98.12;93966.47;5031543;28;20453;-79
2021/09/08 07:54:21;;;;;;;12.70;7.00;;;;;;;16.61;97.02;93965.31;5032684;28;20279;-79
2021/09/08 07:56:50;;;;;;;11.77;7.28;;;;;;;16.92;100.00;93965.91;5032381;28;20543;-79
2021/09/08 07:59:28;;;;;;;16.05;7.45;;;;;;;17.06;97.45;93961.97;5032451;28;20274;-79
2021/09/08 08:01:55;;;;;;;11.40;7.20;;;;;;;17.24;98.00;93963.63;5032779;28;20579;-79
2021/09/08 08:04:22;;;;;;;11.10;6.63;;;;;;;17.45;97.93;93963.97;5032317;28;20208;-79
2021/09/08 08:06:48;;;;;;;13.27;6.45;;;;;;;17.46;92.55;93955.03;5032656;28;20200;-79
2021/09/08 08:09:16;;;;;;;10.90;6.40;;;;;;;17.42;90.60;93957.34;5032262;28;20704;-79
2021/09/08 08:11:45;;;;;;;14.43;6.47;;;;;;;17.60;91.63;93963.44;5020082;28;20200;-79
2021/09/08 08:14:13;;;;;;;11.07;6.80;;;;;;;17.89;95.85;93958.91;5012507;28;20659;-79
2021/09/08 08:16:45;;;;;;;10.48;6.75;;;;;;;17.85;89.45;93957.75;5012451;28;20205;-80
2021/09/08 08:19:14;;;;;;;13.23;6.63;;;;;;;17.97;86.11;93950.56;5012810;28;20197;-79
2021/09/08 08:21:41;;;;;;;9.25;6.32;;;;;;;18.21;86.02;93950.38;5012519;28;20659;-79
2021/09/08 08:24:07;;;;;;;12.45;6.82;;;;;;;18.31;84.50;93955.81;5012266;28;20229;-79
2021/09/08 08:26:38;;;;;;;9.82;5.93;;;;;;;18.38;83.84;93945.84;5012273;28;20626;-80
2021/09/08 08:29:05;;;;;;;10.25;6.43;;;;;;;18.48;86.12;93955.75;5013329;28;20299;-80
2021/09/08 08:31:33;;;;;;;8.93;6.05;;;;;;;18.65;83.78;93953.03;5016249;28;20201;-80
2021/09/08 08:34:00;;;;;;;11.82;5.50;;;;;;;18.71;83.96;93949.44;5015921;28;20233;-80
2021/09/08 08:36:26;;;;;;;10.50;5.80;;;;;;;18.77;83.02;93948.44;5015867;28;20655;-80
2021/09/08 08:38:53;;;;;;;10.50;6.85;;;;;;;18.85;83.65;93944.59;5015864;28;20201;-79
2021/09/08 08:41:25;;;;;;;11.52;5.55;;;;;;;19.04;87.52;93950.34;5015358;28;20211;-80
2021/09/08 08:43:53;;;;;;;10.70;6.00;;;;;;;19.01;82.71;93949.00;5015870;28;20575;-80
2021/09/08 08:46:21;;;;;;;10.15;5.65;;;;;;;19.12;85.30;93939.34;5015862;28;20200;-80
2021/09/08 08:48:48;;;;;;;10.73;6.05;;;;;;;19.22;82.92;93943.94;5015703;28;20295;-80
2021/09/08 08:51:17;;;;;;;11.07;5.60;;;;;;;19.32;81.59;93948.53;5015539;28;20211;-80
2021/09/08 08:53:44;;;;;;;9.23;5.28;;;;;;;19.41;78.13;93934.56;5015462;28;20236;-80
2021/09/08 08:56:10;;;;;;;9.45;5.90;;;;;;;19.21;78.83;93943.09;5015710;28;20224;-80
2021/09/08 08:58:37;;;;;;;10.00;5.80;;;;;;;19.21;79.73;93937.81;5015843;28;20205;-80
2021/09/08 09:01:22;;;;;;;13.82;6.50;;;;;;;19.18;78.41;93940.16;5015665;28;20197;-80
2021/09/08 09:03:59;;;;;;;8.55;5.70;;;;;;;19.28;82.61;93932.31;5015379;28;20750;-80
2021/09/08 09:06:26;;;;;;;11.50;5.78;;;;;;;19.51;79.63;93931.22;5015334;28;20204;-79
2021/09/08 09:08:59;;;;;;;9.25;5.43;;;;;;;19.59;82.33;93925.44;5015326;28;20212;-80
2021/09/08 09:11:25;;;;;;;8.70;5.53;;;;;;;19.76;81.50;93927.19;5015444;28;20212;-80
2021/09/08 09:13:56;;;;;;;9.10;5.65;;;;;;;19.85;81.34;93925.69;5015191;28;20271;-80
2021/09/08 09:16:27;;;;;;;8.60;5.57;;;;;;;19.95;81.05;93919.63;5015194;28;20205;-80
2021/09/08 09:18:56;;;;;;;9.20;5.25;;;;;;;19.84;81.76;93920.63;5032199;28;20682;-80
2021/09/08 09:21:24;;;;;;;9.13;5.10;;;;;;;19.89;82.99;93918.03;5035085;28;20284;-80
2021/09/08 09:23:59;;;;;;;9.75;5.10;;;;;;;19.89;81.51;93908.22;5034665;28;20278;-80
2021/09/08 09:26:27;;;;;;;8.98;5.35;;;;;;;20.06;80.47;93915.22;5034891;28;20198;-80
2021/09/08 09:29:05;;;;;;;8.77;4.93;;;;;;;20.27;76.89;93911.63;5034581;28;20651;-80
2021/09/08 09:31:33;;;;;;;8.38;5.38;;;;;;;20.36;78.32;93908.47;5034614;28;20208;-79
2021/09/08 09:34:01;;;;;;;8.25;5.05;;;;;;;20.48;80.50;93906.41;5034476;28;20709;-81
2021/09/08 09:36:31;;;;;;;12.25;5.80;;;;;;;20.54;77.59;93907.25;5034514;28;20210;-80
2021/09/08 09:39:01;;;;;;;6.50;4.28;;;;;;;20.57;73.30;93910.16;5034566;28;20200;-80
2021/09/08 09:41:35;;;;;;;9.98;4.95;;;;;;;20.65;75.52;93912.34;5033823;28;20208;-80
2021/09/08 09:44:09;;;;;;;7.18;4.63;;;;;;;20.82;77.51;93911.34;5034469;28;20289;-80
2021/09/08 09:46:44;;;;;;;6.30;3.92;;;;;;;20.99;71.63;93898.66;5034534;28;20777;-80
2021/09/08 09:49:11;;;;;;;7.32;4.20;;;;;;;21.07;72.48;93907.97;5034160;28;20206;-80
2021/09/08 09:51:38;;;;;;;11.10;4.55;;;;;;;21.12;70.77;93909.84;5034350;28;20208;-80
2021/09/08 09:54:05;;;;;;;7.78;5.00;;;;;;;21.07;70.33;93910.63;5034029;28;20224;-80
2021/09/08 09:56:34;;;;;;;10.88;4.57;;;;;;;21.09;69.14;93894.44;5034438;28;20306;-79
2021/09/08 09:59:02;;;;;;;8.85;4.70;;;;;;;21.26;68.33;93900.28;5033827;28;20204;-79
2021/09/08 10:01:33;;;;;;;7.63;4.32;;;;;;;21.14;65.71;93900.53;5034092;28;20287;-79
2021/09/08 10:04:03;;;;;;;7.50;3.90;;;;;;;21.21;67.92;93900.28;5034119;28;20302;-79
2021/09/08 10:06:31;;;;;;;6.57;3.90;;;;;;;21.52;65.75;93901.13;5034035;28;20206;-79
2021/09/08 10:09:02;;;;;;;11.98;6.03;;;;;;;21.34;72.81;93889.13;5033790;28;20204;-78
2021/09/08 10:11:33;;;;;;;12.60;6.78;;;;;;;20.86;77.12;93896.50;5034121;28;20291;-79
2021/09/08 10:14:06;;;;;;;11.02;6.53;;;;;;;20.72;79.32;93890.88;5033377;28;20614;-79
2021/09/08 10:16:35;;;;;;;11.77;6.57;;;;;;;20.76;80.40;93888.50;5033716;28;20792;-78
2021/09/08 10:19:12;;;;;;;10.25;6.72;;;;;;;20.53;80.33;93890.50;5033590;28;20196;-79
2021/09/08 10:21:38;;;;;;;10.20;6.43;;;;;;;20.72;84.53;93887.41;5033820;28;20231;-78
2021/09/08 10:24:05;;;;;;;9.30;6.53;;;;;;;20.92;81.19;93882.19;5033349;28;20724;-79
2021/09/08 10:26:34;;;;;;;10.15;6.47;;;;;;;20.72;78.76;93879.47;5033790;28;20568;-78
2021/09/08 10:29:07;;;;;;;11.70;6.07;;;;;;;20.89;77.88;93885.34;5033506;28;20211;-78
2021/09/08 10:31:35;;;;;;;13.43;5.68;;;;;;;21.15;80.93;93882.75;5033326;28;20204;-78
2021/09/08 10:34:08;;;;;;;9.05;5.45;;;;;;;21.21;79.03;93876.38;5033590;28;20236;-78
2021/09/08 10:36:39;;;;;;;9.68;5.78;;;;;;;21.31;75.25;93873.72;5033677;28;20204;-78
2021/09/08 10:39:10;;;;;;;9.40;5.65;;;;;;;21.28;74.00;93863.63;5033496;28;20206;-79
2021/09/08 10:41:55;;;;;;;10.25;5.45;;;;;;;21.29;74.64;93864.44;5033458;28;20222;-79
2021/09/08 10:44:45;;;;;;;7.93;5.43;;;;;;;21.59;76.73;93871.66;5033095;28;20687;-79
2021/09/08 10:47:12;;;;;;;9.40;5.80;;;;;;;21.66;74.23;93866.06;5033430;28;20196;-79
2021/09/08 10:49:59;;;;;;;9.18;5.38;;;;;;;21.69;71.50;93863.66;5033083;28;20207;-79
2021/09/08 10:52:50;;;;;;;10.40;6.07;;;;;;;21.78;73.63;93861.25;5032538;28;20200;-79
2021/09/08 10:55:24;;;;;;;10.57;6.00;;;;;;;21.77;75.73;93857.81;5033328;28;20290;-79
2021/09/08 10:58:02;;;;;;;9.82;5.88;;;;;;;22.07;73.06;93850.06;5033340;28;20249;-78
2021/09/08 11:00:40;;;;;;;8.63;5.72;;;;;;;22.10;74.60;93846.81;5033042;28;20200;-79
2021/09/08 11:03:23;;;;;;;11.23;5.15;;;;;;;21.85;72.03;93853.00;5033222;28;20645;-78
2021/09/08 11:05:53;;;;;;;9.30;5.38;;;;;;;21.92;70.95;93843.69;5033289;28;20558;-79
2021/09/08 11:08:25;;;;;;;7.35;5.28;;;;;;;21.81;72.75;93842.91;5032986;28;20200;-79
2021/09/08 11:11:06;;;;;;;9.25;5.15;;;;;;;21.98;71.86;93841.81;5033068;28;20200;-79
2021/09/08 11:13:37;;;;;;;15.77;5.63;;;;;;;22.14;69.37;93845.22;5032946;28;20315;-79
2021/09/08 11:16:15;;;;;;;8.13;5.00;;;;;;;22.29;68.37;93844.41;5033081;28;20298;-79
2021/09/08 11:18:41;;;;;;;8.60;5.05;;;;;;;22.46;67.84;93830.78;5032839;28;20287;-78
2021/09/08 11:21:09;;;;;;;7.65;4.53;;;;;;;22.45;69.50;93830.00;5032937;28;20208;-78
2021/09/08 11:23:36;;;;;;;12.50;4.75;;;;;;;22.47;69.10;93838.50;5032707;28;20609;-79
2021/09/08 11:26:08;;;;;;;8.95;5.82;;;;;;;22.54;70.03;93838.97;5032737;28;20578;-77
2021/09/08 11:28:35;;;;;;;6.55;4.28;;;;;;;22.44;66.14;93838.25;5028659;28;20204;-77
2021/09/08 11:31:10;;;;;;;9.88;5.15;;;;;;;22.32;68.00;93835.91;5032591;28;20737;-79
2021/09/08 11:33:37;;;;;;;7.63;4.55;;;;;;;22.60;70.27;93836.28;5032478;28;20235;-79
2021/09/08 11:36:16;;;;;;;12.48;4.47;;;;;;;22.63;68.36;93836.56;5032684;28;20261;-79
2021/09/08 11:38:46;;;;;;;7.90;4.60;;;;;;;22.72;68.33;93837.56;5032826;28;20200;-79
2021/09/08 11:41:17;;;;;;;8.63;4.50;;;;;;;22.70;65.11;93833.59;5032724;28;20288;-79
2021/09/08 11:43:47;;;;;;;7.28;5.10;;;;;;;22.86;67.10;93829.75;5032556;28;20658;-78
2021/09/08 11:46:16;;;;;;;12.15;5.68;;;;;;;23.07;68.75;93829.66;5032611;28;20254;-78
2021/09/08 11:48:44;;;;;;;10.80;5.70;;;;;;;23.18;68.06;93833.03;5031367;28;20441;-79
2021/09/08 11:51:13;;;;;;;9.20;5.32;;;;;;;23.08;69.16;93823.25;5032386;28;20207;-78
2021/09/08 11:53:42;;;;;;;11.57;6.10;;;;;;;23.08;72.07;93829.38;5032529;28;20243;-78
2021/09/08 11:56:10;;;;;;;7.43;5.30;;;;;;;22.85;71.66;93822.84;5032518;28;20228;-79
2021/09/08 11:58:37;;;;;;;9.57;5.45;;;;;;;22.96;72.47;93828.09;5031933;28;20223;-79
2021/09/08 12:01:09;;;;;;;10.43;5.93;;;;;;;22.97;70.64;93816.41;5030431;28;20300;-79
2021/09/08 12:03:41;;;;;;;8.43;5.53;;;;;;;23.07;70.47;93819.81;5030277;28;20741;-78
2021/09/08 12:06:09;;;;;;;9.55;5.53;;;;;;;22.96;70.17;93812.13;5034310;28;20208;-79
2021/09/08 12:08:48;;;;;;;10.07;5.80;;;;;;;23.17;73.86;93808.28;5034251;28;20211;-79